Time;durP1;ratioP1;P1;durP2;ratioP2;P2;SDS_P1;SDS_P2;PMS_P1;PMS_P2;Temp;Humidity;BMP_temperature;BMP_pressure;BME280_temperature;BME280_humidity;BME280_pressure;Samples;Min_cycle;Max_cycle;Signal;HPM_P1;HPM_P2
2024/01/27 00:01:01;;;;;;;0.77;0.77;;;;;;;;;;5013555;28;20041;-72
2024/01/27 00:03:29;;;;;;;2.15;1.95;;;;;;;;;;5012291;28;20514;-72
2024/01/27 00:05:57;;;;;;;1.83;1.38;;;;;;;;;;5013426;28;20038;-72
2024/01/27 00:08:24;;;;;;;2.58;1.40;;;;;;;;;;5013417;28;20050;-72
2024/01/27 00:10:52;;;;;;;2.13;1.20;;;;;;;;;;5013385;28;20052;-72
2024/01/27 00:13:20;;;;;;;0.65;0.65;;;;;;;;;;5013473;28;20100;-72
2024/01/27 00:15:47;;;;;;;0.45;0.45;;;;;;;;;;5012013;28;20443;-72
2024/01/27 00:18:16;;;;;;;0.40;0.40;;;;;;;;;;5012290;28;20046;-72
2024/01/27 00:20:44;;;;;;;0.32;0.32;;;;;;;;;;5013217;28;20049;-72
2024/01/27 00:23:12;;;;;;;0.00;0.00;;;;;;;;;;5013013;28;20050;-71
2024/01/27 00:25:39;;;;;;;1.55;0.63;;;;;;;;;;5012980;28;20075;-71
2024/01/27 00:28:07;;;;;;;0.63;0.52;;;;;;;;;;5013153;28;20452;-71
2024/01/27 00:30:34;;;;;;;0.30;0.22;;;;;;;;;;5013184;28;20041;-71
2024/01/27 00:33:02;;;;;;;0.63;0.60;;;;;;;;;;5011897;28;20042;-71
2024/01/27 00:35:30;;;;;;;0.00;0.00;;;;;;;;;;5013018;28;20053;-71
2024/01/27 00:37:57;;;;;;;0.00;0.00;;;;;;;;;;5012929;28;20042;-71
2024/01/27 00:40:25;;;;;;;0.15;0.15;;;;;;;;;;5011655;28;20143;-71
2024/01/27 00:42:54;;;;;;;8.23;2.38;;;;;;;;;;5012275;28;20120;-71
2024/01/27 00:45:27;;;;;;;0.32;0.32;;;;;;;;;;5012717;28;20114;-71
2024/01/27 00:47:55;;;;;;;0.10;0.10;;;;;;;;;;5012912;28;20129;-71
2024/01/27 00:50:22;;;;;;;0.73;0.73;;;;;;;;;;5012752;28;20125;-71
2024/01/27 00:52:50;;;;;;;0.08;0.08;;;;;;;;;;5012813;28;20054;-72
2024/01/27 00:55:18;;;;;;;0.40;0.40;;;;;;;;;;5011592;28;20404;-72
2024/01/27 00:57:45;;;;;;;0.00;0.00;;;;;;;;;;5012821;28;20554;-72
2024/01/27 01:00:13;;;;;;;0.03;0.03;;;;;;;;;;5012805;28;20042;-72
2024/01/27 01:02:41;;;;;;;0.08;0.08;;;;;;;;;;5012723;28;20038;-72
2024/01/27 01:05:09;;;;;;;0.60;0.40;;;;;;;;;;5012715;28;20129;-72
2024/01/27 01:07:36;;;;;;;0.10;0.10;;;;;;;;;;5012688;28;20034;-72
2024/01/27 01:10:04;;;;;;;0.30;0.30;;;;;;;;;;5012695;28;20041;-72
2024/01/27 01:12:31;;;;;;;0.20;0.20;;;;;;;;;;5012710;28;20538;-72
2024/01/27 01:14:59;;;;;;;0.32;0.32;;;;;;;;;;5011462;28;20446;-72
2024/01/27 01:17:27;;;;;;;1.58;1.48;;;;;;;;;;5012619;28;20073;-72
2024/01/27 01:19:54;;;;;;;0.10;0.10;;;;;;;;;;5011349;28;20157;-72
2024/01/27 01:22:22;;;;;;;1.25;0.95;;;;;;;;;;5012291;28;20064;-72
2024/01/27 01:24:49;;;;;;;0.45;0.45;;;;;;;;;;5011382;28;20052;-72
2024/01/27 01:27:18;;;;;;;4.13;0.75;;;;;;;;;;5012427;28;20084;-72
2024/01/27 01:29:46;;;;;;;0.38;0.38;;;;;;;;;;5012476;28;20402;-72
2024/01/27 01:32:15;;;;;;;0.00;0.00;;;;;;;;;;5012500;28;20041;-72
2024/01/27 01:34:42;;;;;;;0.25;0.25;;;;;;;;;;5012692;28;20046;-72
2024/01/27 01:37:10;;;;;;;0.13;0.13;;;;;;;;;;5012670;28;20096;-72
2024/01/27 01:39:38;;;;;;;1.00;0.90;;;;;;;;;;5012686;28;20056;-72
2024/01/27 01:42:05;;;;;;;2.42;1.70;;;;;;;;;;5011294;28;20049;-72
2024/01/27 01:44:33;;;;;;;0.00;0.00;;;;;;;;;;5012341;28;20065;-72
2024/01/27 01:47:00;;;;;;;1.98;1.45;;;;;;;;;;5012363;28;20042;-72
2024/01/27 01:49:28;;;;;;;0.50;0.50;;;;;;;;;;5011108;28;20041;-72
2024/01/27 01:51:56;;;;;;;1.55;0.63;;;;;;;;;;5012298;28;20042;-72
2024/01/27 01:54:27;;;;;;;2.35;1.33;;;;;;;;;;5011564;28;20399;-72
2024/01/27 01:56:59;;;;;;;0.00;0.00;;;;;;;;;;5015951;28;20407;-72
2024/01/27 01:59:26;;;;;;;1.23;1.15;;;;;;;;;;5015852;28;20056;-72
2024/01/27 02:01:54;;;;;;;1.30;1.30;;;;;;;;;;5014477;28;20069;-72
2024/01/27 02:04:22;;;;;;;3.33;0.47;;;;;;;;;;5015684;28;20076;-72
2024/01/27 02:06:49;;;;;;;3.03;0.68;;;;;;;;;;5015923;28;20038;-72
2024/01/27 02:09:17;;;;;;;1.10;0.52;;;;;;;;;;5015447;28;20041;-71
2024/01/27 02:11:44;;;;;;;0.30;0.30;;;;;;;;;;5015631;28;20038;-72
2024/01/27 02:14:13;;;;;;;3.47;0.43;;;;;;;;;;5014304;28;20100;-72
2024/01/27 02:16:41;;;;;;;0.55;0.55;;;;;;;;;;5015456;28;20480;-72
2024/01/27 02:19:08;;;;;;;3.03;0.65;;;;;;;;;;5014196;28;20419;-72
2024/01/27 02:21:36;;;;;;;0.10;0.10;;;;;;;;;;5015237;28;20049;-72
2024/01/27 02:24:07;;;;;;;4.07;1.40;;;;;;;;;;5015343;28;20128;-72
2024/01/27 02:26:35;;;;;;;0.22;0.22;;;;;;;;;;5015301;28;20135;-72
2024/01/27 02:29:03;;;;;;;0.40;0.40;;;;;;;;;;5015153;28;20050;-72
2024/01/27 02:31:31;;;;;;;0.88;0.82;;;;;;;;;;5015282;28;20443;-72
2024/01/27 02:33:58;;;;;;;0.00;0.00;;;;;;;;;;5015329;28;20034;-72
2024/01/27 02:36:26;;;;;;;0.32;0.32;;;;;;;;;;5013939;28;20045;-72
2024/01/27 02:38:53;;;;;;;0.22;0.22;;;;;;;;;;5015063;28;20104;-72
2024/01/27 02:41:21;;;;;;;0.28;0.28;;;;;;;;;;5014997;28;20108;-72
2024/01/27 02:43:49;;;;;;;0.43;0.43;;;;;;;;;;5014860;28;20042;-72
2024/01/27 02:46:17;;;;;;;1.02;0.75;;;;;;;;;;5014985;28;20042;-72
2024/01/27 02:48:44;;;;;;;0.32;0.25;;;;;;;;;;5014890;28;20113;-72
2024/01/27 02:51:13;;;;;;;0.10;0.10;;;;;;;;;;5014905;28;20045;-72
2024/01/27 02:53:40;;;;;;;0.82;0.57;;;;;;;;;;5013666;28;20038;-72
2024/01/27 02:56:08;;;;;;;0.40;0.40;;;;;;;;;;5014803;28;20124;-72
2024/01/27 02:58:36;;;;;;;1.45;0.80;;;;;;;;;;5014643;28;20084;-72
2024/01/27 03:01:03;;;;;;;1.88;1.15;;;;;;;;;;5016575;28;20093;-72
2024/01/27 03:03:31;;;;;;;1.17;0.75;;;;;;;;;;5034433;28;20394;-72
2024/01/27 03:05:59;;;;;;;3.60;0.55;;;;;;;;;;5033491;28;20052;-72
2024/01/27 03:08:27;;;;;;;1.02;0.90;;;;;;;;;;5033133;28;20045;-72
2024/01/27 03:10:54;;;;;;;0.20;0.20;;;;;;;;;;5034551;28;20100;-72
2024/01/27 03:13:22;;;;;;;0.00;0.00;;;;;;;;;;5034270;28;20037;-72
2024/01/27 03:15:50;;;;;;;0.10;0.10;;;;;;;;;;5034071;28;20049;-72
2024/01/27 03:18:17;;;;;;;0.00;0.00;;;;;;;;;;5034211;28;20037;-72
2024/01/27 03:20:45;;;;;;;0.38;0.38;;;;;;;;;;5034343;28;20487;-72
2024/01/27 03:23:13;;;;;;;0.00;0.00;;;;;;;;;;5033862;28;20136;-72
2024/01/27 03:25:40;;;;;;;0.35;0.35;;;;;;;;;;5032733;28;20455;-72
2024/01/27 03:28:08;;;;;;;0.22;0.22;;;;;;;;;;5033961;28;20045;-71
2024/01/27 03:30:36;;;;;;;0.20;0.20;;;;;;;;;;5033892;28;20410;-72
2024/01/27 03:33:03;;;;;;;1.45;1.02;;;;;;;;;;5033883;28;20044;-72
2024/01/27 03:35:31;;;;;;;0.10;0.10;;;;;;;;;;5033811;28;20046;-72
2024/01/27 03:37:59;;;;;;;0.55;0.55;;;;;;;;;;5033815;28;20044;-72
2024/01/27 03:40:31;;;;;;;0.00;0.00;;;;;;;;;;5033749;28;20059;-72
2024/01/27 03:42:58;;;;;;;0.00;0.00;;;;;;;;;;5033655;28;20057;-71
2024/01/27 03:45:26;;;;;;;0.20;0.20;;;;;;;;;;5033598;28;20491;-71
2024/01/27 03:47:53;;;;;;;0.10;0.10;;;;;;;;;;5033344;28;20037;-71
2024/01/27 03:50:21;;;;;;;0.65;0.57;;;;;;;;;;5033454;28;20073;-71
2024/01/27 03:52:49;;;;;;;0.00;0.00;;;;;;;;;;5033535;28;20486;-72
2024/01/27 03:55:17;;;;;;;0.52;0.52;;;;;;;;;;5033391;28;20049;-72
2024/01/27 03:57:44;;;;;;;0.28;0.28;;;;;;;;;;5033384;28;20034;-72
2024/01/27 04:00:12;;;;;;;0.05;0.05;;;;;;;;;;5033332;28;20045;-73
2024/01/27 04:02:40;;;;;;;0.00;0.00;;;;;;;;;;5033353;28;20042;-72
2024/01/27 04:05:07;;;;;;;1.48;1.38;;;;;;;;;;5033193;28;20122;-72
2024/01/27 04:07:35;;;;;;;0.73;0.60;;;;;;;;;;5033187;28;20033;-72
2024/01/27 04:10:04;;;;;;;0.00;0.00;;;;;;;;;;5033131;28;20410;-72
2024/01/27 04:12:31;;;;;;;2.13;1.10;;;;;;;;;;5033136;28;20407;-72
2024/01/27 04:14:59;;;;;;;0.70;0.20;;;;;;;;;;5031855;28;20069;-72
2024/01/27 04:17:27;;;;;;;0.15;0.15;;;;;;;;;;5032716;28;20076;-72
2024/01/27 04:19:55;;;;;;;0.00;0.00;;;;;;;;;;5032660;28;20112;-72
2024/01/27 04:22:22;;;;;;;0.98;0.47;;;;;;;;;;5032828;28;20454;-72
2024/01/27 04:24:50;;;;;;;0.00;0.00;;;;;;;;;;5032848;28;20120;-72
2024/01/27 04:27:17;;;;;;;0.10;0.10;;;;;;;;;;5032853;28;20034;-72
2024/01/27 04:29:45;;;;;;;0.15;0.15;;;;;;;;;;5032694;28;20043;-72
2024/01/27 04:32:13;;;;;;;0.40;0.30;;;;;;;;;;5031512;28;20103;-72
2024/01/27 04:34:41;;;;;;;0.38;0.30;;;;;;;;;;5032810;28;20091;-72
2024/01/27 04:37:08;;;;;;;1.13;0.85;;;;;;;;;;5031577;28;20065;-72
2024/01/27 04:39:36;;;;;;;0.10;0.10;;;;;;;;;;5032522;28;20049;-72
2024/01/27 04:42:06;;;;;;;0.57;0.13;;;;;;;;;;5032554;28;20045;-72
2024/01/27 04:44:34;;;;;;;0.00;0.00;;;;;;;;;;5032630;28;20466;-72
2024/01/27 04:47:01;;;;;;;1.45;0.43;;;;;;;;;;5032650;28;20040;-73
2024/01/27 04:49:29;;;;;;;0.30;0.30;;;;;;;;;;5032526;28;20041;-73
2024/01/27 04:51:56;;;;;;;0.00;0.00;;;;;;;;;;5032665;28;20099;-73
2024/01/27 04:54:25;;;;;;;0.00;0.00;;;;;;;;;;5032564;28;20037;-73
2024/01/27 04:56:52;;;;;;;0.00;0.00;;;;;;;;;;5032529;28;20394;-73
2024/01/27 04:59:20;;;;;;;0.45;0.45;;;;;;;;;;5032476;28;20034;-73
2024/01/27 05:01:48;;;;;;;1.95;0.73;;;;;;;;;;5032248;28;20042;-73
2024/01/27 05:04:15;;;;;;;1.45;1.35;;;;;;;;;;5032384;28;20050;-72
2024/01/27 05:06:46;;;;;;;2.22;1.05;;;;;;;;;;5032433;28;20045;-73
2024/01/27 05:09:14;;;;;;;2.38;0.73;;;;;;;;;;5031042;28;20380;-73
2024/01/27 05:11:42;;;;;;;2.33;1.58;;;;;;;;;;5032257;28;20084;-73
2024/01/27 05:14:10;;;;;;;0.30;0.30;;;;;;;;;;5031129;28;20418;-73
2024/01/27 05:16:37;;;;;;;0.08;0.08;;;;;;;;;;5031244;28;20080;-72
2024/01/27 05:19:05;;;;;;;0.30;0.30;;;;;;;;;;5032379;28;20041;-73
2024/01/27 05:21:33;;;;;;;0.43;0.43;;;;;;;;;;5032169;28;20049;-72
2024/01/27 05:24:00;;;;;;;0.00;0.00;;;;;;;;;;5031075;28;20121;-72
2024/01/27 05:26:28;;;;;;;0.00;0.00;;;;;;;;;;5032552;28;20132;-72
2024/01/27 05:28:56;;;;;;;0.20;0.20;;;;;;;;;;5032223;28;20091;-73
2024/01/27 05:31:24;;;;;;;1.13;0.30;;;;;;;;;;5036071;28;20045;-73
2024/01/27 05:33:52;;;;;;;0.82;0.60;;;;;;;;;;5034837;28;20471;-72
2024/01/27 05:36:20;;;;;;;3.78;1.25;;;;;;;;;;5035964;28;20435;-72
2024/01/27 05:38:48;;;;;;;1.17;0.65;;;;;;;;;;5034714;28;20041;-72
2024/01/27 05:41:15;;;;;;;0.63;0.63;;;;;;;;;;5035968;28;20041;-72
2024/01/27 05:43:43;;;;;;;1.98;0.73;;;;;;;;;;5035799;28;20037;-72
2024/01/27 05:46:10;;;;;;;0.63;0.57;;;;;;;;;;5035804;28;20084;-72
2024/01/27 05:48:38;;;;;;;0.70;0.70;;;;;;;;;;5035885;28;20048;-72
2024/01/27 05:51:05;;;;;;;0.10;0.10;;;;;;;;;;5034522;28;20096;-72
2024/01/27 05:53:37;;;;;;;0.45;0.45;;;;;;;;;;5035713;28;20080;-72
2024/01/27 05:56:04;;;;;;;1.85;1.27;;;;;;;;;;5035647;28;20042;-72
2024/01/27 05:58:32;;;;;;;0.63;0.63;;;;;;;;;;5035857;28;20356;-72
2024/01/27 06:01:00;;;;;;;4.40;2.03;;;;;;;;;;5035508;28;20495;-72
2024/01/27 06:03:27;;;;;;;0.32;0.32;;;;;;;;;;5035406;28;20041;-73
2024/01/27 06:05:55;;;;;;;2.33;2.22;;;;;;;;;;5035530;28;20041;-73
2024/01/27 06:08:23;;;;;;;0.00;0.00;;;;;;;;;;5035314;28;20045;-73
2024/01/27 06:10:50;;;;;;;0.17;0.17;;;;;;;;;;5035219;28;20045;-72
2024/01/27 06:13:18;;;;;;;0.13;0.13;;;;;;;;;;5035386;28;20095;-72
2024/01/27 06:15:45;;;;;;;2.85;2.45;;;;;;;;;;5033908;28;20128;-73
2024/01/27 06:18:13;;;;;;;1.13;1.02;;;;;;;;;;5035176;28;20045;-73
2024/01/27 06:20:41;;;;;;;0.00;0.00;;;;;;;;;;5035280;28;20483;-73
2024/01/27 06:23:08;;;;;;;1.10;1.10;;;;;;;;;;5034976;28;20077;-72
2024/01/27 06:25:36;;;;;;;0.00;0.00;;;;;;;;;;5035154;28;20077;-73
2024/01/27 06:28:04;;;;;;;0.50;0.50;;;;;;;;;;5035033;28;20113;-73
2024/01/27 06:30:31;;;;;;;0.20;0.20;;;;;;;;;;5034905;28;20038;-73
2024/01/27 06:32:59;;;;;;;0.93;0.90;;;;;;;;;;5034897;28;20112;-73
2024/01/27 06:35:27;;;;;;;0.28;0.28;;;;;;;;;;5034879;28;20045;-72
2024/01/27 06:37:55;;;;;;;3.00;2.72;;;;;;;;;;5029019;28;20364;-73
2024/01/27 06:40:22;;;;;;;0.08;0.08;;;;;;;;;;5034677;28;20042;-73
2024/01/27 06:42:50;;;;;;;0.00;0.00;;;;;;;;;;5034104;28;20042;-73
2024/01/27 06:45:18;;;;;;;0.22;0.22;;;;;;;;;;5034753;28;20042;-73
2024/01/27 06:47:45;;;;;;;0.30;0.30;;;;;;;;;;5034598;28;20120;-73
2024/01/27 06:50:14;;;;;;;2.40;1.23;;;;;;;;;;5033459;28;20053;-73
2024/01/27 06:52:42;;;;;;;0.00;0.00;;;;;;;;;;5034550;28;20428;-73
2024/01/27 06:55:10;;;;;;;1.17;0.75;;;;;;;;;;5034807;28;20045;-72
2024/01/27 06:57:40;;;;;;;0.00;0.00;;;;;;;;;;5034252;28;20042;-72
2024/01/27 07:00:08;;;;;;;0.00;0.00;;;;;;;;;;5034551;28;20133;-73
2024/01/27 07:02:36;;;;;;;0.00;0.00;;;;;;;;;;5033577;28;20443;-73
2024/01/27 07:05:04;;;;;;;1.90;1.77;;;;;;;;;;5033089;28;20046;-73
2024/01/27 07:07:38;;;;;;;0.43;0.43;;;;;;;;;;5034284;28;20045;-73
2024/01/27 07:10:09;;;;;;;0.00;0.00;;;;;;;;;;5032796;28;20132;-73
2024/01/27 07:12:37;;;;;;;0.10;0.10;;;;;;;;;;5034037;28;20037;-73
2024/01/27 07:15:04;;;;;;;0.65;0.57;;;;;;;;;;5033979;28;20455;-73
2024/01/27 07:17:32;;;;;;;0.35;0.35;;;;;;;;;;5033967;28;20041;-73
2024/01/27 07:20:00;;;;;;;0.03;0.03;;;;;;;;;;5033743;28;20046;-73
2024/01/27 07:22:27;;;;;;;0.75;0.75;;;;;;;;;;5033722;28;20045;-73
2024/01/27 07:24:56;;;;;;;0.35;0.10;;;;;;;;;;5032355;28;20390;-75
2024/01/27 07:27:24;;;;;;;1.40;0.38;;;;;;;;;;5033468;28;20395;-75
2024/01/27 07:29:52;;;;;;;0.38;0.30;;;;;;;;;;5033223;28;20506;-75
2024/01/27 07:32:19;;;;;;;0.75;0.75;;;;;;;;;;5033459;28;20041;-76
2024/01/27 07:34:47;;;;;;;1.42;1.10;;;;;;;;;;5033393;28;20813;-75
2024/01/27 07:37:14;;;;;;;0.00;0.00;;;;;;;;;;5033059;28;20087;-75
2024/01/27 07:39:42;;;;;;;0.50;0.32;;;;;;;;;;5033016;28;20042;-76
2024/01/27 07:42:10;;;;;;;0.20;0.20;;;;;;;;;;5033155;28;20080;-79
2024/01/27 07:44:37;;;;;;;0.90;0.75;;;;;;;;;;5033487;28;20048;-76
2024/01/27 07:47:05;;;;;;;0.80;0.80;;;;;;;;;;5033502;28;20052;-76
2024/01/27 07:49:33;;;;;;;1.02;0.93;;;;;;;;;;5034086;28;20076;-79
2024/01/27 07:52:01;;;;;;;0.25;0.22;;;;;;;;;;5033390;28;20048;-80
2024/01/27 07:54:29;;;;;;;1.80;1.35;;;;;;;;;;5033184;28;20049;-80
2024/01/27 07:56:56;;;;;;;1.38;0.75;;;;;;;;;;5033576;28;20045;-79
2024/01/27 07:59:25;;;;;;;0.00;0.00;;;;;;;;;;5033295;28;20046;-80
2024/01/27 08:01:52;;;;;;;0.00;0.00;;;;;;;;;;5032994;28;20411;-80
2024/01/27 08:04:20;;;;;;;0.20;0.20;;;;;;;;;;5033290;28;20458;-78
2024/01/27 08:06:49;;;;;;;0.52;0.47;;;;;;;;;;5033639;28;20042;-80
2024/01/27 08:09:17;;;;;;;0.93;0.30;;;;;;;;;;5033549;28;20136;-80
2024/01/27 08:11:45;;;;;;;0.35;0.35;;;;;;;;;;5033696;28;20046;-76
2024/01/27 08:14:12;;;;;;;0.30;0.30;;;;;;;;;;5033260;28;20095;-76
2024/01/27 08:16:40;;;;;;;0.15;0.15;;;;;;;;;;5032206;28;20045;-73
2024/01/27 08:19:07;;;;;;;0.75;0.45;;;;;;;;;;5031640;28;20083;-72
2024/01/27 08:21:35;;;;;;;1.08;0.45;;;;;;;;;;5032773;28;20136;-73
2024/01/27 08:24:03;;;;;;;2.10;1.95;;;;;;;;;;5032941;28;20112;-73
2024/01/27 08:26:30;;;;;;;0.20;0.20;;;;;;;;;;5031467;28;20124;-72
2024/01/27 08:28:58;;;;;;;0.10;0.10;;;;;;;;;;5032913;28;20054;-74
2024/01/27 08:31:26;;;;;;;1.60;1.50;;;;;;;;;;5033293;28;20041;-75
2024/01/27 08:33:54;;;;;;;0.80;0.80;;;;;;;;;;5032876;28;20474;-74
2024/01/27 08:36:22;;;;;;;9.52;1.65;;;;;;;;;;5032909;28;20076;-74
2024/01/27 08:38:49;;;;;;;0.10;0.10;;;;;;;;;;5032940;28;20064;-73
2024/01/27 08:41:17;;;;;;;11.82;0.90;;;;;;;;;;5032394;28;20055;-73
2024/01/27 08:43:44;;;;;;;0.15;0.13;;;;;;;;;;5030468;28;20453;-73
2024/01/27 08:46:13;;;;;;;0.93;0.57;;;;;;;;;;5029997;28;20037;-74
2024/01/27 08:48:41;;;;;;;0.25;0.25;;;;;;;;;;5028947;28;20066;-73
2024/01/27 08:51:10;;;;;;;2.60;1.10;;;;;;;;;;5024788;28;20037;-74
2024/01/27 08:53:38;;;;;;;1.10;1.00;;;;;;;;;;5022134;28;20041;-74
2024/01/27 08:56:05;;;;;;;3.20;1.20;;;;;;;;;;5026237;28;20049;-74
2024/01/27 08:58:33;;;;;;;0.85;0.20;;;;;;;;;;5025040;28;20480;-73
2024/01/27 09:01:05;;;;;;;0.00;0.00;;;;;;;;;;5010514;28;20554;-73
2024/01/27 09:03:33;;;;;;;1.77;1.67;;;;;;;;;;5015097;28;20037;-73
2024/01/27 09:06:01;;;;;;;1.20;1.08;;;;;;;;;;5020166;28;20059;-73
2024/01/27 09:08:29;;;;;;;1.02;0.95;;;;;;;;;;5031148;28;20457;-74
2024/01/27 09:10:56;;;;;;;3.60;2.13;;;;;;;;;;5030488;28;20045;-73
2024/01/27 09:13:24;;;;;;;0.30;0.30;;;;;;;;;;5030268;28;20542;-73
2024/01/27 09:15:51;;;;;;;0.00;0.00;;;;;;;;;;5030919;28;20120;-73
2024/01/27 09:18:19;;;;;;;3.40;0.98;;;;;;;;;;5029904;28;20524;-73
2024/01/27 09:20:51;;;;;;;0.00;0.00;;;;;;;;;;5031213;28;20049;-73
2024/01/27 09:23:19;;;;;;;1.15;1.13;;;;;;;;;;5030721;28;20049;-73
2024/01/27 09:25:46;;;;;;;26.15;1.67;;;;;;;;;;5028583;28;20410;-75
2024/01/27 09:28:15;;;;;;;0.28;0.28;;;;;;;;;;5039428;28;20482;-73
2024/01/27 09:30:43;;;;;;;0.95;0.95;;;;;;;;;;5017550;28;20053;-73
2024/01/27 09:33:12;;;;;;;2.92;1.85;;;;;;;;;;5011159;28;20045;-69
2024/01/27 09:35:40;;;;;;;0.08;0.08;;;;;;;;;;5011782;28;20041;-77
2024/01/27 09:38:12;;;;;;;2.03;1.85;;;;;;;;;;5029502;28;20049;-72
2024/01/27 09:40:40;;;;;;;2.53;1.13;;;;;;;;;;5035144;28;20049;-75
2024/01/27 09:43:14;;;;;;;0.28;0.28;;;;;;;;;;5033742;28;20124;-77
2024/01/27 09:45:42;;;;;;;1.38;1.27;;;;;;;;;;5034965;28;20487;-75
2024/01/27 09:48:11;;;;;;;2.97;1.35;;;;;;;;;;5035396;28;20378;-75
2024/01/27 09:50:42;;;;;;;6.13;1.75;;;;;;;;;;5035996;28;20156;-74
2024/01/27 09:53:10;;;;;;;1.80;1.70;;;;;;;;;;5035174;28;20069;-74
2024/01/27 09:55:38;;;;;;;0.75;0.75;;;;;;;;;;5035910;28;20506;-75
2024/01/27 09:58:05;;;;;;;0.10;0.10;;;;;;;;;;5034967;28;20033;-74
2024/01/27 10:00:38;;;;;;;3.05;1.90;;;;;;;;;;5035190;28;20394;-75
2024/01/27 10:03:06;;;;;;;4.55;3.22;;;;;;;;;;5035421;28;20490;-75
2024/01/27 10:05:34;;;;;;;3.42;2.72;;;;;;;;;;5035392;28;20038;-74
2024/01/27 10:08:02;;;;;;;29.63;2.55;;;;;;;;;;5035581;28;20100;-74
2024/01/27 10:10:29;;;;;;;0.95;0.95;;;;;;;;;;5035285;28;20116;-74
2024/01/27 10:12:59;;;;;;;1.70;1.42;;;;;;;;;;5035537;28;20499;-74
2024/01/27 10:15:27;;;;;;;1.42;1.13;;;;;;;;;;5035379;28;20034;-74
2024/01/27 10:18:05;;;;;;;2.30;1.42;;;;;;;;;;5035695;28;20103;-78
2024/01/27 10:20:33;;;;;;;0.38;0.15;;;;;;;;;;5034427;28;20041;-77
2024/01/27 10:23:11;;;;;;;0.10;0.10;;;;;;;;;;5035263;28;20133;-78
2024/01/27 10:25:39;;;;;;;0.40;0.40;;;;;;;;;;5035461;28;20131;-77
2024/01/27 10:28:10;;;;;;;0.68;0.63;;;;;;;;;;5035512;28;20088;-76
2024/01/27 10:30:38;;;;;;;2.40;2.17;;;;;;;;;;5028302;28;20045;-74
2024/01/27 10:33:10;;;;;;;3.05;0.95;;;;;;;;;;5023857;28;20041;-74
2024/01/27 10:35:38;;;;;;;10.05;3.20;;;;;;;;;;5037817;28;20041;-74
2024/01/27 10:38:05;;;;;;;0.38;0.38;;;;;;;;;;5040252;28;20077;-75
2024/01/27 10:40:33;;;;;;;1.00;0.90;;;;;;;;;;5020587;28;20450;-74
2024/01/27 10:43:02;;;;;;;7.93;1.08;;;;;;;;;;5011910;28;20046;-75
2024/01/27 10:45:37;;;;;;;0.70;0.55;;;;;;;;;;5009336;28;20045;-75
2024/01/27 10:48:06;;;;;;;1.10;0.90;;;;;;;;;;5024896;28;20236;-74
2024/01/27 10:50:37;;;;;;;0.70;0.70;;;;;;;;;;5029172;28;20514;-75
2024/01/27 10:53:15;;;;;;;0.63;0.63;;;;;;;;;;5028776;28;20160;-75
2024/01/27 10:55:44;;;;;;;0.45;0.45;;;;;;;;;;5028525;28;20049;-75
2024/01/27 10:58:13;;;;;;;4.95;3.92;;;;;;;;;;5029269;28;20052;-74
2024/01/27 11:00:42;;;;;;;0.50;0.50;;;;;;;;;;5027694;28;20050;-77
2024/01/27 11:03:11;;;;;;;4.18;3.40;;;;;;;;;;5035326;28;20149;-78
2024/01/27 11:05:40;;;;;;;6.43;2.83;;;;;;;;;;5024578;28;20030;-78
2024/01/27 11:08:09;;;;;;;1.08;0.98;;;;;;;;;;5025536;28;20033;-79
2024/01/27 11:10:38;;;;;;;0.82;0.82;;;;;;;;;;5011612;28;20034;-76
2024/01/27 11:13:06;;;;;;;1.33;1.05;;;;;;;;;;5012477;28;20056;-74
2024/01/27 11:15:34;;;;;;;0.00;0.00;;;;;;;;;;5014181;28;20149;-74
2024/01/27 11:18:04;;;;;;;1.65;1.50;;;;;;;;;;5010966;28;20054;-74
2024/01/27 11:20:32;;;;;;;3.00;1.65;;;;;;;;;;5013879;28;20049;-74
2024/01/27 11:23:15;;;;;;;0.30;0.25;;;;;;;;;;5011381;28;20177;-75
2024/01/27 11:25:43;;;;;;;5.05;2.08;;;;;;;;;;5013584;28;20242;-75
2024/01/27 11:28:14;;;;;;;0.52;0.38;;;;;;;;;;5024423;28;20041;-75
2024/01/27 11:30:49;;;;;;;2.63;1.45;;;;;;;;;;5025462;28;20042;-75
2024/01/27 11:33:18;;;;;;;1.67;1.50;;;;;;;;;;5026442;28;20745;-75
2024/01/27 11:35:46;;;;;;;0.75;0.65;;;;;;;;;;5025954;28;20679;-74
2024/01/27 11:38:14;;;;;;;0.30;0.30;;;;;;;;;;5026307;28;20045;-74
2024/01/27 11:40:47;;;;;;;1.60;0.82;;;;;;;;;;5028061;28;20095;-74
2024/01/27 11:43:15;;;;;;;0.00;0.00;;;;;;;;;;5027587;28;20044;-77
2024/01/27 11:45:43;;;;;;;1.35;1.25;;;;;;;;;;5020464;28;20069;-77
2024/01/27 11:48:11;;;;;;;3.88;2.53;;;;;;;;;;5008093;28;20058;-73
2024/01/27 11:50:39;;;;;;;6.85;2.90;;;;;;;;;;5017591;28;20065;-73
2024/01/27 11:53:09;;;;;;;1.50;1.40;;;;;;;;;;5028052;28;20403;-73
2024/01/27 11:55:38;;;;;;;2.45;1.27;;;;;;;;;;5026352;28;20754;-74
2024/01/27 11:58:08;;;;;;;0.25;0.25;;;;;;;;;;5011311;28;20052;-73
2024/01/27 12:00:36;;;;;;;0.00;0.00;;;;;;;;;;5009090;28;20057;-74
2024/01/27 12:03:04;;;;;;;1.65;1.20;;;;;;;;;;5008291;28;20492;-72
2024/01/27 12:05:32;;;;;;;0.03;0.03;;;;;;;;;;5007370;28;20048;-73
2024/01/27 12:08:00;;;;;;;0.52;0.52;;;;;;;;;;5030154;28;20064;-74
2024/01/27 12:10:27;;;;;;;2.60;1.80;;;;;;;;;;5010920;28;20042;-73
2024/01/27 12:12:57;;;;;;;1.45;1.33;;;;;;;;;;5038168;28;20049;-73
2024/01/27 12:15:26;;;;;;;0.08;0.08;;;;;;;;;;5037639;28;20049;-73
2024/01/27 12:17:54;;;;;;;0.70;0.70;;;;;;;;;;5024465;28;20048;-72
2024/01/27 12:20:23;;;;;;;2.05;1.63;;;;;;;;;;5024307;28;20053;-72
2024/01/27 12:23:02;;;;;;;0.70;0.22;;;;;;;;;;5026148;28;20053;-75
2024/01/27 12:25:30;;;;;;;0.73;0.68;;;;;;;;;;5017275;28;20079;-73
2024/01/27 12:28:01;;;;;;;1.50;1.10;;;;;;;;;;5016112;28;20068;-75
2024/01/27 12:30:29;;;;;;;0.05;0.05;;;;;;;;;;5017114;28;20046;-73
2024/01/27 12:32:57;;;;;;;2.17;1.25;;;;;;;;;;5006495;28;20045;-69
2024/01/27 12:35:26;;;;;;;9.52;0.95;;;;;;;;;;5021911;28;20052;-67
2024/01/27 12:37:54;;;;;;;2.35;1.05;;;;;;;;;;5026066;28;20049;-70
2024/01/27 12:40:22;;;;;;;0.77;0.77;;;;;;;;;;5019140;28;20041;-69
2024/01/27 12:42:52;;;;;;;2.83;0.80;;;;;;;;;;5026824;28;20049;-70
2024/01/27 12:45:20;;;;;;;4.03;1.60;;;;;;;;;;5013384;28;20092;-70
2024/01/27 12:47:48;;;;;;;1.08;1.08;;;;;;;;;;5020107;28;20093;-69
2024/01/27 12:50:17;;;;;;;2.95;1.17;;;;;;;;;;5008780;28;20042;-72
2024/01/27 12:52:45;;;;;;;4.68;3.13;;;;;;;;;;5008856;28;20061;-69
2024/01/27 12:55:13;;;;;;;0.80;0.80;;;;;;;;;;5019686;28;20048;-70
2024/01/27 12:57:40;;;;;;;0.20;0.20;;;;;;;;;;5008624;28;20052;-69
2024/01/27 13:00:10;;;;;;;1.13;1.02;;;;;;;;;;5008845;28;20053;-71
2024/01/27 13:02:38;;;;;;;2.83;2.00;;;;;;;;;;5010165;28;20042;-70
2024/01/27 13:05:06;;;;;;;1.75;0.35;;;;;;;;;;5007605;28;20049;-70
2024/01/27 13:07:34;;;;;;;0.35;0.35;;;;;;;;;;5024898;28;20299;-70
2024/01/27 13:10:02;;;;;;;0.08;0.08;;;;;;;;;;5026954;28;20049;-71
2024/01/27 13:12:34;;;;;;;0.30;0.30;;;;;;;;;;5025707;28;20077;-66
2024/01/27 13:15:03;;;;;;;0.57;0.57;;;;;;;;;;5025581;28;20132;-69
2024/01/27 13:17:30;;;;;;;0.70;0.70;;;;;;;;;;5026617;28;20041;-70
2024/01/27 13:19:58;;;;;;;0.55;0.55;;;;;;;;;;5025020;28;20045;-69
2024/01/27 13:22:26;;;;;;;0.30;0.30;;;;;;;;;;5026749;28;20061;-69
2024/01/27 13:24:54;;;;;;;1.33;1.02;;;;;;;;;;5026668;28;20123;-70
2024/01/27 13:27:22;;;;;;;0.00;0.00;;;;;;;;;;5026785;28;20402;-69
2024/01/27 13:29:50;;;;;;;1.00;0.90;;;;;;;;;;5025011;28;20045;-70
2024/01/27 13:32:17;;;;;;;2.00;1.55;;;;;;;;;;5026613;28;20033;-70
2024/01/27 13:34:48;;;;;;;0.00;0.00;;;;;;;;;;5026655;28;20046;-71
2024/01/27 13:37:16;;;;;;;0.10;0.10;;;;;;;;;;5012860;28;20128;-70
2024/01/27 13:39:43;;;;;;;0.03;0.03;;;;;;;;;;5025259;28;20513;-71
2024/01/27 13:42:13;;;;;;;0.00;0.00;;;;;;;;;;5026211;28;20046;-70
2024/01/27 13:44:41;;;;;;;5.05;4.60;;;;;;;;;;5026697;28;20759;-69
2024/01/27 13:47:09;;;;;;;0.38;0.38;;;;;;;;;;5026507;28;20191;-70
2024/01/27 13:49:38;;;;;;;0.00;0.00;;;;;;;;;;5010958;28;20034;-70
2024/01/27 13:52:06;;;;;;;0.93;0.55;;;;;;;;;;5010367;28;20145;-72
2024/01/27 13:54:34;;;;;;;0.10;0.10;;;;;;;;;;5009423;28;20046;-71
2024/01/27 13:57:05;;;;;;;0.25;0.25;;;;;;;;;;5023122;28;20045;-72
2024/01/27 13:59:39;;;;;;;0.52;0.52;;;;;;;;;;5028929;28;20056;-72
2024/01/27 14:02:06;;;;;;;2.22;0.65;;;;;;;;;;5029941;28;20053;-72
2024/01/27 14:04:34;;;;;;;0.22;0.22;;;;;;;;;;5044982;28;20134;-71
2024/01/27 14:07:07;;;;;;;0.00;0.00;;;;;;;;;;5031449;28;20041;-73
2024/01/27 14:09:35;;;;;;;4.38;1.45;;;;;;;;;;5029692;28;20049;-72
2024/01/27 14:12:03;;;;;;;0.17;0.17;;;;;;;;;;5030060;28;20045;-71
2024/01/27 14:14:31;;;;;;;0.00;0.00;;;;;;;;;;5028525;28;20505;-70
2024/01/27 14:16:59;;;;;;;1.98;1.88;;;;;;;;;;5028542;28;20066;-70
2024/01/27 14:19:27;;;;;;;5.10;4.20;;;;;;;;;;5025075;28;20056;-71
2024/01/27 14:21:55;;;;;;;1.88;0.95;;;;;;;;;;5018289;28;20454;-72
2024/01/27 14:24:23;;;;;;;0.47;0.47;;;;;;;;;;5013902;28;20068;-72
2024/01/27 14:26:51;;;;;;;1.20;0.77;;;;;;;;;;5017192;28;20073;-72
2024/01/27 14:29:18;;;;;;;0.08;0.08;;;;;;;;;;5022922;28;20116;-71
2024/01/27 14:31:46;;;;;;;0.00;0.00;;;;;;;;;;5017245;28;20069;-69
2024/01/27 14:34:14;;;;;;;0.17;0.10;;;;;;;;;;5028731;28;20049;-71
2024/01/27 14:36:43;;;;;;;0.00;0.00;;;;;;;;;;5029199;28;20491;-70
2024/01/27 14:39:11;;;;;;;5.47;0.80;;;;;;;;;;5029531;28;20049;-70
2024/01/27 14:41:39;;;;;;;0.08;0.08;;;;;;;;;;5029531;28;20069;-71
2024/01/27 14:44:07;;;;;;;0.00;0.00;;;;;;;;;;5028276;28;20045;-70
2024/01/27 14:46:39;;;;;;;0.22;0.22;;;;;;;;;;5029080;28;20115;-71
2024/01/27 14:49:08;;;;;;;0.20;0.20;;;;;;;;;;5029277;28;20041;-71